createdAt,value
2023-03-31T00:00:02.332Z,6.82
2023-03-31T00:03:10.296Z,6.47
2023-03-31T00:06:17.996Z,5.45
2023-03-31T00:09:22.196Z,5.55
2023-03-31T00:12:24.931Z,5.37
2023-03-31T00:15:29.880Z,7.55
2023-03-31T00:18:33.154Z,4.53
2023-03-31T00:21:36.940Z,7.60
2023-03-31T00:24:39.808Z,5.45
2023-03-31T00:27:44.121Z,5.57
2023-03-31T00:30:48.474Z,3.85
2023-03-31T00:33:51.520Z,6.32
2023-03-31T00:36:56.328Z,4.85
2023-03-31T00:39:59.318Z,5.90
2023-03-31T00:43:03.094Z,4.97
2023-03-31T00:46:15.693Z,6.20
2023-03-31T00:49:24.441Z,5.53
2023-03-31T00:52:35.583Z,5.47
2023-03-31T00:55:43.262Z,5.78
2023-03-31T00:58:47.249Z,5.43
2023-03-31T01:01:52.852Z,7.57
2023-03-31T01:05:02.206Z,5.75
2023-03-31T01:08:06.768Z,5.25
2023-03-31T01:11:13.152Z,6.45
2023-03-31T01:14:16.061Z,5.37
2023-03-31T01:17:22.408Z,4.70
2023-03-31T01:20:38.151Z,4.95
2023-03-31T01:24:02.521Z,4.30
2023-03-31T01:27:29.886Z,4.03
2023-03-31T01:31:08.468Z,5.07
2023-03-31T01:34:56.770Z,5.47
2023-03-31T01:38:42.277Z,5.00
2023-03-31T01:41:57.551Z,4.43
2023-03-31T01:45:09.083Z,4.63
2023-03-31T01:48:18.062Z,5.73
2023-03-31T01:51:30.462Z,6.75
2023-03-31T01:54:40.373Z,7.63
2023-03-31T01:57:51.929Z,4.63
2023-03-31T02:01:02.090Z,5.85
2023-03-31T02:04:11.036Z,3.67
2023-03-31T02:07:17.993Z,5.20
2023-03-31T02:10:23.012Z,5.05
2023-03-31T02:13:30.247Z,4.60
2023-03-31T02:16:37.870Z,4.93
2023-03-31T02:19:45.378Z,4.80
2023-03-31T02:22:52.145Z,3.42
2023-03-31T02:26:01.021Z,4.38
2023-03-31T02:29:05.202Z,4.82
2023-03-31T02:32:15.162Z,3.55
2023-03-31T02:35:21.686Z,5.80
2023-03-31T02:38:24.458Z,5.10
2023-03-31T02:41:27.492Z,3.25
2023-03-31T02:44:31.778Z,3.20
2023-03-31T02:47:35.686Z,4.63
2023-03-31T02:50:52.484Z,4.10
2023-03-31T02:54:16.909Z,4.38
2023-03-31T02:57:49.058Z,5.00
2023-03-31T03:01:08.616Z,4.32
2023-03-31T03:04:27.782Z,4.57
2023-03-31T03:07:38.645Z,4.03
2023-03-31T03:10:56.835Z,4.82
2023-03-31T03:14:06.656Z,3.20
2023-03-31T03:17:16.112Z,4.38
2023-03-31T03:20:21.204Z,4.15
2023-03-31T03:23:23.958Z,3.30
2023-03-31T03:26:28.291Z,4.03
2023-03-31T03:29:31.147Z,5.20
2023-03-31T03:32:35.729Z,5.22
2023-03-31T03:35:38.656Z,5.90
2023-03-31T03:38:41.442Z,5.30
2023-03-31T03:41:44.229Z,3.92
2023-03-31T03:44:47.319Z,3.90
2023-03-31T03:47:51.369Z,4.22
2023-03-31T03:50:55.235Z,4.03
2023-03-31T03:53:57.937Z,3.40
2023-03-31T03:57:00.910Z,5.13
2023-03-31T04:00:08.017Z,4.82
2023-03-31T04:03:12.147Z,4.68
2023-03-31T04:06:15.004Z,3.28
2023-03-31T04:09:17.791Z,5.50
2023-03-31T04:12:20.516Z,3.80
2023-03-31T04:15:23.270Z,4.43
2023-03-31T04:18:27.333Z,3.83
2023-03-31T04:21:30.839Z,2.67
2023-03-31T04:24:33.916Z,3.60
2023-03-31T04:27:36.774Z,4.32
2023-03-31T04:30:39.754Z,5.43
2023-03-31T04:33:46.295Z,5.80
2023-03-31T04:36:49.408Z,6.40
2023-03-31T04:39:54.599Z,4.80
2023-03-31T04:42:57.522Z,4.25
2023-03-31T04:46:00.279Z,5.18
2023-03-31T04:49:05.917Z,5.23
2023-03-31T04:52:08.742Z,4.03
2023-03-31T04:55:11.856Z,6.00
2023-03-31T04:58:14.691Z,5.82
2023-03-31T05:01:18.290Z,5.95
2023-03-31T05:04:22.746Z,5.13
2023-03-31T05:07:25.560Z,5.45
2023-03-31T05:10:28.380Z,6.40
2023-03-31T05:13:31.638Z,4.27
2023-03-31T05:16:34.688Z,4.30
2023-03-31T05:19:39.018Z,4.03
2023-03-31T05:22:43.789Z,4.90
2023-03-31T05:25:46.874Z,4.82
2023-03-31T05:28:49.588Z,5.03
2023-03-31T05:31:53.925Z,4.63
2023-03-31T05:34:58.214Z,5.82
2023-03-31T05:38:00.944Z,4.75
2023-03-31T05:41:03.785Z,5.45
2023-03-31T05:44:06.549Z,5.67
2023-03-31T05:47:09.431Z,5.47
2023-03-31T05:50:14.766Z,6.57
2023-03-31T05:53:17.800Z,5.03
2023-03-31T05:56:21.697Z,3.72
2023-03-31T05:59:24.431Z,3.27
2023-03-31T06:02:27.600Z,4.70
2023-03-31T06:05:32.467Z,6.00
2023-03-31T06:08:35.301Z,5.25
2023-03-31T06:11:38.134Z,4.82
2023-03-31T06:14:40.826Z,5.37
2023-03-31T06:17:43.766Z,5.57
2023-03-31T06:20:47.842Z,4.97
2023-03-31T06:23:55.004Z,5.18
2023-03-31T06:26:57.841Z,5.60
2023-03-31T06:30:00.528Z,6.23
2023-03-31T06:33:03.297Z,4.50
2023-03-31T06:36:08.595Z,3.77
2023-03-31T06:39:11.582Z,4.97
2023-03-31T06:42:15.238Z,4.68
2023-03-31T06:45:18.170Z,4.05
2023-03-31T06:48:21.537Z,5.72
2023-03-31T06:51:25.705Z,6.80
2023-03-31T06:54:28.551Z,5.37
2023-03-31T06:57:33.420Z,7.38
2023-03-31T07:00:36.444Z,5.18
2023-03-31T07:03:39.387Z,4.95
2023-03-31T07:06:43.586Z,5.13
2023-03-31T07:09:46.685Z,3.40
2023-03-31T07:12:49.541Z,5.63
2023-03-31T07:15:52.429Z,4.85
2023-03-31T07:18:59.481Z,6.05
2023-03-31T07:22:03.576Z,4.70
2023-03-31T07:25:07.097Z,4.43
2023-03-31T07:28:09.839Z,5.47
2023-03-31T07:31:13.585Z,3.53
2023-03-31T07:34:16.480Z,4.93
2023-03-31T07:37:20.624Z,2.53
2023-03-31T07:40:26.137Z,6.63
2023-03-31T07:43:29.028Z,4.68
2023-03-31T07:46:31.880Z,5.72
2023-03-31T07:49:35.661Z,2.58
2023-03-31T07:52:44.142Z,3.50
2023-03-31T07:55:48.401Z,3.63
2023-03-31T07:58:54.450Z,3.83
2023-03-31T08:01:58.925Z,3.85
2023-03-31T08:05:02.100Z,6.78
2023-03-31T08:08:06.225Z,5.00
2023-03-31T08:11:09.103Z,5.10
2023-03-31T08:14:11.923Z,4.80
2023-03-31T08:17:14.622Z,3.15
2023-03-31T08:20:17.608Z,3.95
2023-03-31T08:23:21.733Z,7.90
2023-03-31T08:26:25.655Z,3.63
2023-03-31T08:29:28.376Z,4.22
2023-03-31T08:32:32.162Z,3.53
2023-03-31T08:35:34.907Z,4.47
2023-03-31T08:38:41.614Z,4.70
2023-03-31T08:41:52.090Z,6.37
2023-03-31T08:45:01.118Z,3.20
2023-03-31T08:48:07.980Z,3.72
2023-03-31T08:51:17.211Z,5.50
2023-03-31T08:54:31.373Z,3.83
2023-03-31T08:57:41.539Z,5.10
2023-03-31T09:00:52.174Z,4.40
2023-03-31T09:04:14.105Z,6.15
2023-03-31T09:07:26.297Z,5.75
2023-03-31T09:10:42.757Z,5.37
2023-03-31T09:14:13.859Z,4.23
2023-03-31T09:17:21.563Z,6.25
2023-03-31T09:20:31.456Z,4.38
2023-03-31T09:23:39.469Z,3.63
2023-03-31T09:26:48.695Z,5.53
2023-03-31T09:29:57.014Z,4.37
2023-03-31T09:33:12.233Z,5.28
2023-03-31T09:36:17.865Z,4.82
2023-03-31T09:39:20.907Z,5.07
2023-03-31T09:42:25.057Z,9.00
2023-03-31T09:45:30.759Z,3.83
2023-03-31T09:48:37.101Z,6.95
2023-03-31T09:51:44.995Z,4.60
2023-03-31T09:54:51.152Z,3.25
2023-03-31T09:57:55.282Z,5.15
2023-03-31T10:01:01.778Z,5.73
2023-03-31T10:04:10.095Z,6.68
2023-03-31T10:07:13.733Z,4.97
2023-03-31T10:10:28.249Z,5.10
2023-03-31T10:13:41.473Z,4.97
2023-03-31T10:16:47.199Z,5.20
2023-03-31T10:19:52.836Z,5.70
2023-03-31T10:22:55.596Z,3.83
2023-03-31T10:25:59.400Z,5.68
2023-03-31T10:29:03.704Z,5.95
2023-03-31T10:32:13.219Z,6.87
2023-03-31T10:35:25.089Z,4.72
2023-03-31T10:38:31.232Z,5.00
2023-03-31T10:41:34.747Z,5.65
2023-03-31T10:44:40.444Z,3.55
2023-03-31T10:47:43.409Z,3.50
2023-03-31T10:50:46.433Z,4.50
2023-03-31T10:53:51.220Z,5.82
2023-03-31T10:56:57.326Z,3.85
2023-03-31T11:00:15.098Z,3.92
2023-03-31T11:03:36.327Z,3.47
2023-03-31T11:06:50.586Z,4.75
2023-03-31T11:10:11.860Z,3.65
2023-03-31T11:13:22.768Z,4.18
2023-03-31T11:16:35.175Z,5.25
2023-03-31T11:19:46.867Z,3.77
2023-03-31T11:23:00.114Z,4.05
2023-03-31T11:26:08.472Z,3.70
2023-03-31T11:29:27.491Z,3.58
2023-03-31T11:32:45.130Z,3.55
2023-03-31T11:36:00.261Z,4.00
2023-03-31T11:39:16.344Z,5.68
2023-03-31T11:42:22.558Z,5.00
2023-03-31T11:45:30.621Z,4.93
2023-03-31T11:48:42.129Z,4.85
2023-03-31T11:51:52.242Z,4.00
2023-03-31T11:55:01.479Z,3.92
2023-03-31T11:58:11.134Z,4.45
2023-03-31T12:01:21.886Z,4.50
2023-03-31T12:04:34.764Z,5.03
2023-03-31T12:07:42.970Z,6.20
2023-03-31T12:10:49.647Z,6.90
2023-03-31T12:13:59.941Z,4.70
2023-03-31T12:17:10.534Z,4.28
2023-03-31T12:20:20.739Z,4.43
2023-03-31T12:23:28.221Z,5.63
2023-03-31T12:26:40.082Z,4.45
2023-03-31T12:29:46.792Z,4.95
2023-03-31T12:32:54.865Z,4.53
2023-03-31T12:36:18.168Z,6.93
2023-03-31T12:39:35.726Z,6.23
2023-03-31T12:42:54.180Z,6.85
2023-03-31T12:46:09.968Z,5.40
2023-03-31T12:49:44.873Z,5.43
2023-03-31T12:52:58.655Z,5.43
2023-03-31T12:56:01.575Z,6.07
2023-03-31T12:59:20.006Z,4.60
2023-03-31T13:02:26.197Z,4.85
2023-03-31T13:05:47.301Z,5.07
2023-03-31T13:08:54.494Z,5.13
2023-03-31T13:11:57.297Z,5.37
2023-03-31T13:15:00.676Z,5.45
2023-03-31T13:18:05.483Z,6.47
2023-03-31T13:21:09.351Z,4.35
2023-03-31T13:24:14.816Z,4.20
2023-03-31T13:27:34.512Z,7.03
2023-03-31T13:31:08.442Z,6.70
2023-03-31T13:34:11.202Z,6.88
2023-03-31T13:37:22.436Z,5.55
2023-03-31T13:40:50.255Z,6.70
2023-03-31T13:44:29.504Z,5.67
2023-03-31T13:47:58.679Z,5.00
2023-03-31T13:51:31.062Z,5.80
2023-03-31T13:54:54.452Z,5.10
2023-03-31T13:58:34.373Z,6.22
2023-03-31T14:02:04.565Z,4.73
2023-03-31T14:05:22.515Z,4.63
2023-03-31T14:08:37.841Z,5.20
2023-03-31T14:11:40.744Z,3.42
2023-03-31T14:14:45.145Z,3.33
2023-03-31T14:17:48.434Z,3.30
2023-03-31T14:21:05.752Z,4.03
2023-03-31T14:24:19.207Z,3.33
2023-03-31T14:27:39.779Z,2.53
2023-03-31T14:30:53.820Z,3.25
2023-03-31T14:34:13.285Z,3.17
2023-03-31T14:37:21.251Z,2.10
2023-03-31T14:40:25.577Z,3.05
2023-03-31T14:43:30.728Z,3.70
2023-03-31T14:46:40.067Z,4.90
2023-03-31T14:49:43.186Z,2.63
2023-03-31T14:52:49.080Z,2.55
2023-03-31T14:55:58.689Z,3.05
2023-03-31T14:59:03.043Z,2.08
2023-03-31T15:02:12.161Z,4.57
2023-03-31T15:05:26.193Z,2.77
2023-03-31T15:08:30.906Z,3.15
2023-03-31T15:11:33.948Z,3.78
2023-03-31T15:14:41.659Z,3.88
2023-03-31T15:17:48.490Z,3.78
2023-03-31T15:20:51.513Z,3.87
2023-03-31T15:23:56.482Z,2.85
2023-03-31T15:27:04.335Z,2.22
2023-03-31T15:30:09.094Z,3.13
2023-03-31T15:33:21.092Z,2.08
2023-03-31T15:36:24.263Z,1.83
2023-03-31T15:39:29.557Z,0.93
2023-03-31T15:42:33.760Z,1.67
2023-03-31T15:45:46.124Z,1.35
2023-03-31T15:48:55.101Z,1.13
2023-03-31T15:52:00.493Z,1.20
2023-03-31T15:55:24.065Z,1.30
2023-03-31T15:58:47.635Z,2.03
2023-03-31T16:01:51.606Z,1.48
2023-03-31T16:04:59.389Z,1.50
2023-03-31T16:08:03.418Z,1.87
2023-03-31T16:11:11.035Z,3.70
2023-03-31T16:14:20.078Z,3.67
2023-03-31T16:17:28.169Z,4.45
2023-03-31T16:20:37.325Z,3.17
2023-03-31T16:23:44.334Z,3.70
2023-03-31T16:26:47.766Z,3.78
2023-03-31T16:29:50.526Z,3.58
2023-03-31T16:33:02.304Z,3.33
2023-03-31T16:36:08.890Z,3.00
2023-03-31T16:39:11.752Z,2.65
2023-03-31T16:42:14.493Z,2.30
2023-03-31T16:45:17.494Z,2.65
2023-03-31T16:48:22.642Z,3.47
2023-03-31T16:51:27.002Z,2.80
2023-03-31T16:54:29.677Z,2.88
2023-03-31T16:57:32.663Z,3.35
2023-03-31T17:00:36.909Z,4.13
2023-03-31T17:03:41.719Z,4.00
2023-03-31T17:06:46.568Z,3.43
2023-03-31T17:09:49.360Z,4.38
2023-03-31T17:12:52.310Z,4.43
2023-03-31T17:16:01.360Z,5.20
2023-03-31T17:19:18.430Z,3.60
2023-03-31T17:22:22.727Z,4.27
2023-03-31T17:25:25.599Z,3.80
2023-03-31T17:28:28.761Z,5.13
2023-03-31T17:31:31.852Z,4.93
2023-03-31T17:34:34.897Z,4.27
2023-03-31T17:37:39.090Z,3.80
2023-03-31T17:40:43.120Z,4.57
2023-03-31T17:43:46.806Z,4.65
2023-03-31T17:46:49.619Z,4.82
2023-03-31T17:49:52.376Z,4.17
2023-03-31T17:52:58.470Z,5.23
2023-03-31T17:56:01.377Z,5.05
2023-03-31T17:59:04.563Z,5.10
2023-03-31T18:02:08.215Z,5.70
2023-03-31T18:05:11.269Z,6.00
2023-03-31T18:08:16.019Z,5.23
2023-03-31T18:11:18.770Z,5.78
2023-03-31T18:14:22.324Z,5.22
2023-03-31T18:17:25.187Z,5.13
2023-03-31T18:20:28.558Z,5.23
2023-03-31T18:23:33.849Z,5.00
2023-03-31T18:26:36.547Z,5.03
2023-03-31T18:29:39.898Z,4.45
2023-03-31T18:32:43.544Z,5.35
2023-03-31T18:35:48.406Z,6.57
2023-03-31T18:38:53.350Z,7.17
2023-03-31T18:41:56.168Z,8.13
2023-03-31T18:44:59.052Z,7.55
2023-03-31T18:48:02.491Z,7.95
2023-03-31T18:51:05.990Z,7.73
2023-03-31T18:54:10.353Z,7.30
2023-03-31T18:57:13.200Z,6.05
2023-03-31T19:00:17.226Z,5.47
2023-03-31T19:03:20.351Z,5.40
2023-03-31T19:06:23.576Z,7.37
2023-03-31T19:09:27.991Z,6.77
2023-03-31T19:12:30.785Z,7.38
2023-03-31T19:15:33.894Z,8.65
2023-03-31T19:18:37.470Z,6.53
2023-03-31T19:21:41.350Z,6.20
2023-03-31T19:24:46.142Z,6.53
2023-03-31T19:27:49.486Z,6.68
2023-03-31T19:30:54.266Z,7.38
2023-03-31T19:33:58.515Z,8.07
2023-03-31T19:37:02.236Z,8.37
2023-03-31T19:40:07.757Z,7.17
2023-03-31T19:43:19.304Z,7.25
2023-03-31T19:46:22.322Z,7.30
2023-03-31T19:49:25.342Z,8.82
2023-03-31T19:52:29.683Z,7.90
2023-03-31T19:55:37.465Z,7.50
2023-03-31T19:58:40.286Z,7.75
2023-03-31T20:01:43.245Z,7.88
2023-03-31T20:04:46.155Z,7.15
2023-03-31T20:07:49.053Z,8.50
2023-03-31T20:10:53.391Z,7.33
2023-03-31T20:13:57.185Z,8.40
2023-03-31T20:17:01.229Z,8.27
2023-03-31T20:20:04.084Z,7.93
2023-03-31T20:23:07.042Z,7.27
2023-03-31T20:26:14.480Z,7.23
2023-03-31T20:29:17.672Z,7.35
2023-03-31T20:32:20.633Z,6.75
2023-03-31T20:35:23.398Z,7.13
2023-03-31T20:38:26.282Z,6.67
2023-03-31T20:41:31.958Z,6.20
2023-03-31T20:44:34.952Z,5.80
2023-03-31T20:47:37.867Z,5.97
2023-03-31T20:50:41.837Z,5.35
2023-03-31T20:53:46.782Z,5.67
2023-03-31T20:56:51.928Z,5.37
2023-03-31T20:59:54.743Z,5.75
2023-03-31T21:02:57.641Z,6.20
2023-03-31T21:06:04.003Z,5.75
2023-03-31T21:09:07.204Z,5.70
2023-03-31T21:12:12.656Z,6.30
2023-03-31T21:15:15.650Z,6.95
2023-03-31T21:18:18.534Z,8.73
2023-03-31T21:21:24.274Z,6.80
2023-03-31T21:24:27.812Z,6.80
2023-03-31T21:27:32.148Z,7.47
2023-03-31T21:30:34.867Z,6.80
2023-03-31T21:33:39.148Z,6.85
2023-03-31T21:36:43.132Z,6.60
2023-03-31T21:39:46.527Z,6.30
2023-03-31T21:42:50.752Z,6.07
2023-03-31T21:45:58.414Z,6.07
2023-03-31T21:49:01.504Z,5.65
2023-03-31T21:52:05.216Z,6.82
2023-03-31T21:55:11.849Z,6.53
2023-03-31T21:58:16.732Z,7.00
2023-03-31T22:01:20.446Z,5.95
2023-03-31T22:04:23.367Z,6.35
2023-03-31T22:07:26.260Z,6.28
2023-03-31T22:10:29.181Z,6.40
2023-03-31T22:13:33.962Z,5.90
2023-03-31T22:16:36.962Z,5.80
2023-03-31T22:19:39.814Z,5.30
2023-03-31T22:22:42.778Z,6.20
2023-03-31T22:25:45.713Z,6.17
2023-03-31T22:28:50.621Z,4.38
2023-03-31T22:31:53.557Z,5.40
2023-03-31T22:34:56.414Z,5.60
2023-03-31T22:37:59.254Z,5.05
2023-03-31T22:41:02.101Z,6.03
2023-03-31T22:44:06.391Z,5.40
2023-03-31T22:47:09.349Z,6.32
2023-03-31T22:50:12.667Z,6.55
2023-03-31T22:53:16.827Z,5.00
2023-03-31T22:56:21.227Z,4.87
2023-03-31T22:59:25.651Z,4.82
2023-03-31T23:02:28.394Z,5.22
2023-03-31T23:05:31.671Z,5.28
2023-03-31T23:08:35.823Z,5.45
2023-03-31T23:11:38.944Z,5.63
2023-03-31T23:14:43.224Z,4.53
2023-03-31T23:17:46.042Z,5.35
2023-03-31T23:20:49.113Z,4.93
2023-03-31T23:23:53.833Z,8.48
2023-03-31T23:26:56.812Z,4.87
2023-03-31T23:30:01.191Z,6.10
2023-03-31T23:33:03.944Z,5.97
2023-03-31T23:36:07.973Z,6.05
2023-03-31T23:39:10.918Z,5.60
2023-03-31T23:42:16.145Z,5.20
2023-03-31T23:45:20.452Z,5.38
2023-03-31T23:48:23.369Z,5.20
2023-03-31T23:51:26.668Z,5.90
2023-03-31T23:54:29.967Z,5.13
2023-03-31T23:57:32.730Z,7.53
